createdAt,value
2023-05-19T00:01:21.605Z,1.67
2023-05-19T00:03:55.966Z,1.85
2023-05-19T00:06:25.413Z,1.83
2023-05-19T00:08:57.773Z,1.80
2023-05-19T00:11:26.975Z,2.00
2023-05-19T00:13:58.736Z,1.60
2023-05-19T00:16:27.588Z,1.50
2023-05-19T00:18:54.794Z,1.70
2023-05-19T00:21:22.046Z,1.65
2023-05-19T00:23:49.222Z,1.75
2023-05-19T00:26:16.488Z,1.73
2023-05-19T00:28:53.368Z,1.25
2023-05-19T00:31:21.079Z,1.45
2023-05-19T00:33:48.101Z,1.40
2023-05-19T00:36:15.597Z,1.40
2023-05-19T00:38:42.581Z,1.33
2023-05-19T00:41:11.023Z,1.20
2023-05-19T00:43:37.960Z,1.45
2023-05-19T00:46:05.330Z,1.80
2023-05-19T00:48:32.338Z,1.73
2023-05-19T00:51:04.479Z,1.30
2023-05-19T00:53:32.837Z,1.42
2023-05-19T00:56:00.912Z,1.45
2023-05-19T00:58:30.401Z,1.30
2023-05-19T01:01:04.195Z,1.25
2023-05-19T01:03:35.227Z,1.20
2023-05-19T01:06:05.941Z,1.20
2023-05-19T01:08:34.131Z,1.20
2023-05-19T01:11:01.730Z,0.98
2023-05-19T01:13:29.409Z,1.35
2023-05-19T01:16:13.228Z,1.33
2023-05-19T01:18:56.483Z,1.38
2023-05-19T01:21:44.434Z,1.10
2023-05-19T01:24:30.617Z,1.52
2023-05-19T01:27:04.163Z,1.20
2023-05-19T01:29:58.963Z,1.02
2023-05-19T01:32:27.123Z,1.35
2023-05-19T01:34:55.758Z,1.40
2023-05-19T01:37:24.301Z,1.40
2023-05-19T01:39:51.668Z,0.95
2023-05-19T01:42:20.793Z,1.10
2023-05-19T01:44:47.966Z,1.40
2023-05-19T01:47:15.310Z,1.40
2023-05-19T01:49:42.817Z,1.10
2023-05-19T01:52:10.304Z,1.15
2023-05-19T01:54:37.304Z,1.20
2023-05-19T01:57:17.459Z,1.00
2023-05-19T02:00:05.722Z,1.10
2023-05-19T02:03:07.914Z,1.08
2023-05-19T02:05:58.562Z,1.05
2023-05-19T02:08:50.636Z,1.08
2023-05-19T02:11:29.174Z,1.10
2023-05-19T02:14:01.596Z,1.25
2023-05-19T02:16:29.330Z,1.05
2023-05-19T02:18:57.378Z,1.20
2023-05-19T02:21:24.519Z,0.88
2023-05-19T02:23:51.878Z,1.13
2023-05-19T02:26:20.178Z,1.20
2023-05-19T02:28:47.495Z,1.13
2023-05-19T02:31:14.415Z,1.17
2023-05-19T02:33:43.100Z,1.17
2023-05-19T02:36:10.201Z,1.10
2023-05-19T02:38:37.729Z,1.08
2023-05-19T02:41:04.788Z,0.88
2023-05-19T02:43:31.975Z,0.98
2023-05-19T02:45:59.058Z,1.13
2023-05-19T02:48:27.205Z,1.17
2023-05-19T02:50:54.275Z,0.95
2023-05-19T02:53:21.505Z,1.10
2023-05-19T02:55:48.406Z,1.20
2023-05-19T02:58:15.705Z,1.10
2023-05-19T03:00:45.178Z,1.40
2023-05-19T03:03:14.010Z,1.00
2023-05-19T03:05:41.592Z,1.15
2023-05-19T03:08:09.362Z,1.20
2023-05-19T03:10:36.518Z,0.90
2023-05-19T03:13:04.164Z,1.10
2023-05-19T03:15:31.245Z,1.10
2023-05-19T03:17:58.758Z,0.93
2023-05-19T03:20:25.796Z,1.35
2023-05-19T03:22:53.122Z,0.88
2023-05-19T03:25:20.164Z,1.00
2023-05-19T03:27:47.410Z,1.40
2023-05-19T03:30:14.912Z,0.70
2023-05-19T03:33:01.799Z,1.08
2023-05-19T03:35:29.232Z,1.20
2023-05-19T03:37:56.774Z,0.90
2023-05-19T03:40:23.774Z,1.05
2023-05-19T03:42:56.839Z,1.48
2023-05-19T03:45:23.986Z,0.90
2023-05-19T03:47:52.973Z,0.85
2023-05-19T03:50:38.649Z,1.00
2023-05-19T03:53:16.208Z,1.02
2023-05-19T03:55:44.559Z,0.73
2023-05-19T03:58:14.651Z,0.80
2023-05-19T04:00:42.228Z,0.90
2023-05-19T04:03:09.805Z,1.10
2023-05-19T04:05:36.884Z,1.00
2023-05-19T04:08:04.242Z,0.80
2023-05-19T04:10:31.447Z,0.93
2023-05-19T04:12:59.114Z,0.80
2023-05-19T04:15:26.516Z,0.68
2023-05-19T04:17:53.890Z,0.90
2023-05-19T04:20:21.109Z,1.00
2023-05-19T04:22:48.831Z,0.98
2023-05-19T04:25:15.878Z,0.98
2023-05-19T04:27:43.166Z,0.82
2023-05-19T04:30:10.927Z,0.75
2023-05-19T04:32:39.724Z,1.27
2023-05-19T04:35:07.287Z,1.08
2023-05-19T04:37:37.486Z,0.90
2023-05-19T04:40:06.482Z,1.00
2023-05-19T04:42:34.064Z,0.80
2023-05-19T04:45:03.293Z,1.10
2023-05-19T04:47:38.295Z,0.90
2023-05-19T04:50:07.328Z,0.73
2023-05-19T04:52:35.157Z,1.00
2023-05-19T04:55:04.337Z,1.20
2023-05-19T04:57:31.846Z,1.20
2023-05-19T05:00:02.364Z,1.02
2023-05-19T05:02:37.540Z,0.90
2023-05-19T05:05:05.502Z,1.00
2023-05-19T05:07:33.058Z,0.90
2023-05-19T05:10:01.215Z,1.20
2023-05-19T05:12:29.201Z,1.20
2023-05-19T05:14:56.555Z,1.10
2023-05-19T05:17:25.685Z,1.15
2023-05-19T05:19:53.124Z,1.10
2023-05-19T05:22:21.479Z,1.05
2023-05-19T05:24:49.444Z,1.10
2023-05-19T05:27:16.761Z,1.20
2023-05-19T05:29:43.885Z,1.13
2023-05-19T05:32:11.220Z,1.17
2023-05-19T05:34:39.919Z,1.38
2023-05-19T05:37:07.329Z,1.17
2023-05-19T05:39:35.174Z,1.23
2023-05-19T05:42:02.741Z,1.35
2023-05-19T05:44:30.493Z,1.17
2023-05-19T05:46:58.667Z,1.13
2023-05-19T05:49:25.886Z,1.13
2023-05-19T05:52:05.522Z,0.90
2023-05-19T05:54:38.755Z,1.10
2023-05-19T05:57:08.053Z,1.33
2023-05-19T05:59:35.036Z,1.33
2023-05-19T06:02:02.735Z,1.67
2023-05-19T06:04:31.110Z,1.42
2023-05-19T06:07:01.290Z,1.58
2023-05-19T06:09:32.990Z,1.65
2023-05-19T06:12:01.012Z,1.73
2023-05-19T06:14:32.643Z,1.27
2023-05-19T06:17:12.286Z,1.60
2023-05-19T06:19:39.520Z,1.80
2023-05-19T06:22:07.550Z,2.03
2023-05-19T06:24:34.712Z,1.70
2023-05-19T06:27:02.482Z,2.08
2023-05-19T06:29:29.556Z,1.75
2023-05-19T06:32:00.957Z,2.13
2023-05-19T06:34:28.057Z,1.90
2023-05-19T06:36:55.607Z,2.47
2023-05-19T06:39:23.147Z,1.92
2023-05-19T06:41:50.758Z,2.30
2023-05-19T06:44:37.612Z,2.20
2023-05-19T06:47:09.747Z,2.40
2023-05-19T06:49:37.174Z,2.13
2023-05-19T06:52:05.090Z,2.47
2023-05-19T06:54:32.076Z,2.60
2023-05-19T06:56:59.441Z,2.30
2023-05-19T06:59:26.402Z,2.15
2023-05-19T07:01:54.092Z,2.00
2023-05-19T07:04:21.237Z,2.90
2023-05-19T07:06:50.306Z,3.55
2023-05-19T07:09:17.882Z,2.92
2023-05-19T07:11:47.471Z,3.35
2023-05-19T07:14:14.598Z,3.28
2023-05-19T07:16:41.960Z,3.58
2023-05-19T07:19:09.092Z,3.28
2023-05-19T07:21:36.516Z,3.63
2023-05-19T07:24:03.647Z,3.03
2023-05-19T07:26:31.223Z,3.15
2023-05-19T07:28:58.191Z,3.33
2023-05-19T07:31:25.951Z,3.38
2023-05-19T07:33:54.587Z,3.03
2023-05-19T07:36:22.412Z,3.40
2023-05-19T07:38:49.560Z,3.58
2023-05-19T07:41:17.027Z,3.65
2023-05-19T07:43:44.116Z,3.30
2023-05-19T07:46:11.416Z,3.13
2023-05-19T07:48:38.573Z,3.22
2023-05-19T07:51:06.044Z,2.88
2023-05-19T07:53:33.049Z,3.20
2023-05-19T07:56:00.326Z,3.22
2023-05-19T07:58:27.330Z,3.10
2023-05-19T08:00:57.740Z,3.15
2023-05-19T08:03:25.785Z,3.10
2023-05-19T08:05:53.196Z,3.15
2023-05-19T08:08:20.257Z,3.08
2023-05-19T08:10:47.580Z,3.15
2023-05-19T08:13:14.582Z,3.60
2023-05-19T08:15:42.874Z,3.25
2023-05-19T08:18:09.976Z,3.30
2023-05-19T08:20:37.644Z,3.47
2023-05-19T08:23:04.692Z,3.50
2023-05-19T08:25:32.216Z,3.67
2023-05-19T08:27:59.126Z,3.40
2023-05-19T08:30:26.436Z,3.55
2023-05-19T08:32:53.406Z,4.20
2023-05-19T08:35:20.896Z,4.32
2023-05-19T08:37:47.841Z,3.63
2023-05-19T08:40:17.624Z,4.32
2023-05-19T08:42:45.982Z,4.15
2023-05-19T08:45:13.824Z,3.97
2023-05-19T08:47:46.321Z,3.63
2023-05-19T08:50:17.566Z,3.83
2023-05-19T08:52:57.837Z,4.32
2023-05-19T08:55:37.197Z,4.30
2023-05-19T08:58:04.806Z,3.92
2023-05-19T09:00:33.183Z,4.03
2023-05-19T09:03:18.256Z,3.30
2023-05-19T09:05:50.879Z,3.88
2023-05-19T09:08:18.455Z,4.30
2023-05-19T09:10:45.695Z,4.03
2023-05-19T09:13:12.651Z,4.13
2023-05-19T09:15:41.362Z,3.97
2023-05-19T09:18:13.349Z,3.95
2023-05-19T09:20:42.844Z,4.28
2023-05-19T09:23:16.870Z,4.13
2023-05-19T09:25:51.596Z,4.38
2023-05-19T09:28:29.567Z,4.13
2023-05-19T09:31:00.188Z,3.67
2023-05-19T09:33:28.372Z,4.45
2023-05-19T09:35:59.075Z,4.22
2023-05-19T09:38:27.056Z,4.15
2023-05-19T09:40:59.172Z,3.92
2023-05-19T09:43:30.099Z,4.45
2023-05-19T09:46:07.575Z,3.13
2023-05-19T09:48:36.618Z,3.55
2023-05-19T09:51:08.316Z,3.47
2023-05-19T09:53:35.425Z,3.67
2023-05-19T09:56:03.673Z,3.78
2023-05-19T09:58:37.104Z,4.43
2023-05-19T10:01:05.155Z,3.45
2023-05-19T10:03:33.786Z,4.13
2023-05-19T10:06:01.594Z,3.95
2023-05-19T10:08:30.746Z,3.85
2023-05-19T10:10:58.542Z,3.80
2023-05-19T10:13:25.934Z,4.53
2023-05-19T10:15:58.937Z,4.85
2023-05-19T10:18:27.921Z,4.50
2023-05-19T10:20:57.814Z,3.85
2023-05-19T10:23:25.602Z,3.97
2023-05-19T10:25:54.965Z,4.20
2023-05-19T10:28:25.342Z,4.15
2023-05-19T10:30:54.932Z,3.97
2023-05-19T10:33:29.885Z,4.43
2023-05-19T10:36:48.118Z,3.95
2023-05-19T10:39:17.143Z,4.18
2023-05-19T10:41:48.522Z,4.15
2023-05-19T10:44:35.448Z,3.85
2023-05-19T10:47:02.897Z,3.40
2023-05-19T10:49:35.597Z,4.07
2023-05-19T10:52:03.112Z,4.38
2023-05-19T10:54:46.796Z,3.85
2023-05-19T10:57:32.050Z,3.80
2023-05-19T11:00:09.962Z,4.05
2023-05-19T11:02:41.954Z,4.15
2023-05-19T11:05:09.408Z,4.30
2023-05-19T11:07:36.861Z,4.93
2023-05-19T11:10:07.795Z,4.25
2023-05-19T11:12:43.084Z,4.50
2023-05-19T11:15:16.873Z,4.18
2023-05-19T11:17:48.950Z,3.90
2023-05-19T11:20:25.746Z,4.07
2023-05-19T11:23:06.089Z,4.93
2023-05-19T11:25:45.380Z,4.10
2023-05-19T11:28:13.966Z,3.78
2023-05-19T11:30:45.910Z,4.32
2023-05-19T11:33:14.036Z,4.13
2023-05-19T11:35:42.268Z,4.40
2023-05-19T11:38:11.226Z,4.20
2023-05-19T11:40:38.733Z,4.65
2023-05-19T11:43:06.483Z,4.57
2023-05-19T11:45:34.796Z,4.57
2023-05-19T11:48:05.529Z,4.10
2023-05-19T11:50:33.338Z,4.88
2023-05-19T11:53:01.402Z,4.22
2023-05-19T11:55:29.030Z,4.45
2023-05-19T12:00:31.035Z,4.07
2023-05-19T12:02:58.511Z,5.43
2023-05-19T12:05:26.655Z,4.45
2023-05-19T12:07:54.185Z,4.72
2023-05-19T12:10:25.332Z,4.32
2023-05-19T12:12:53.767Z,4.32
2023-05-19T12:15:24.420Z,4.43
2023-05-19T12:18:01.287Z,4.90
2023-05-19T12:20:29.449Z,4.22
2023-05-19T12:22:56.906Z,4.68
2023-05-19T12:25:24.728Z,4.00
2023-05-19T12:27:56.173Z,3.90
2023-05-19T12:30:31.808Z,4.03
2023-05-19T12:32:59.712Z,3.97
2023-05-19T12:35:34.065Z,3.95
2023-05-19T12:38:05.720Z,3.83
2023-05-19T12:40:37.310Z,3.83
2023-05-19T12:43:05.810Z,4.20
2023-05-19T12:45:36.870Z,3.70
2023-05-19T12:48:06.600Z,4.30
2023-05-19T12:50:34.739Z,3.60
2023-05-19T12:53:02.676Z,3.72
2023-05-19T12:55:30.094Z,3.47
2023-05-19T12:57:58.617Z,3.83
2023-05-19T13:00:29.306Z,3.60
2023-05-19T13:02:56.947Z,4.15
2023-05-19T13:05:24.703Z,3.60
2023-05-19T13:08:05.706Z,3.33
2023-05-19T13:10:34.974Z,3.83
2023-05-19T13:13:04.011Z,3.33
2023-05-19T13:15:36.370Z,4.28
2023-05-19T13:18:09.832Z,3.80
2023-05-19T13:20:37.953Z,3.83
2023-05-19T13:23:05.922Z,4.05
2023-05-19T13:25:34.304Z,4.05
2023-05-19T13:28:05.568Z,4.07
2023-05-19T13:30:38.187Z,3.78
2023-05-19T13:33:05.949Z,4.03
2023-05-19T13:35:37.382Z,4.07
2023-05-19T13:38:12.194Z,3.78
2023-05-19T13:40:40.106Z,3.78
2023-05-19T13:43:08.744Z,4.22
2023-05-19T13:45:36.013Z,4.43
2023-05-19T13:48:03.545Z,4.03
2023-05-19T13:50:30.664Z,4.13
2023-05-19T13:52:58.017Z,4.20
2023-05-19T13:55:27.270Z,4.07
2023-05-19T13:57:54.603Z,4.03
2023-05-19T14:00:21.853Z,4.35
2023-05-19T14:02:49.141Z,4.35
2023-05-19T14:05:16.919Z,4.57
2023-05-19T14:07:44.753Z,4.93
2023-05-19T14:10:11.970Z,4.57
2023-05-19T14:12:51.734Z,4.97
2023-05-19T14:15:27.420Z,4.93
2023-05-19T14:17:54.861Z,5.05
2023-05-19T14:20:21.973Z,4.93
2023-05-19T14:22:49.608Z,4.38
2023-05-19T14:25:16.725Z,5.63
2023-05-19T14:27:44.276Z,5.13
2023-05-19T14:30:11.450Z,5.22
2023-05-19T14:32:38.877Z,5.65
2023-05-19T14:35:06.473Z,5.20
2023-05-19T14:37:34.091Z,5.15
2023-05-19T14:40:01.090Z,5.05
2023-05-19T14:42:28.494Z,5.03
2023-05-19T14:44:56.010Z,5.55
2023-05-19T14:47:24.353Z,4.93
2023-05-19T14:49:52.187Z,5.35
2023-05-19T14:52:19.909Z,5.00
2023-05-19T14:54:47.174Z,4.82
2023-05-19T14:57:14.853Z,6.03
2023-05-19T14:59:41.994Z,4.85
2023-05-19T15:02:09.740Z,5.63
2023-05-19T15:04:36.673Z,5.22
2023-05-19T15:09:34.143Z,5.63
2023-05-19T15:12:01.526Z,5.00
2023-05-19T15:14:30.620Z,5.47
2023-05-19T15:16:59.161Z,5.28
2023-05-19T15:19:26.864Z,5.63
2023-05-19T15:21:54.298Z,4.60
2023-05-19T15:24:21.277Z,5.07
2023-05-19T15:26:48.949Z,5.15
2023-05-19T15:29:16.521Z,5.53
2023-05-19T15:31:43.911Z,5.72
2023-05-19T15:34:10.979Z,5.43
2023-05-19T15:36:38.269Z,4.97
2023-05-19T15:39:06.524Z,4.97
2023-05-19T15:41:33.830Z,5.70
2023-05-19T15:44:01.061Z,5.18
2023-05-19T15:46:29.174Z,4.72
2023-05-19T15:48:56.482Z,4.78
2023-05-19T15:51:23.940Z,5.30
2023-05-19T15:53:51.074Z,5.40
2023-05-19T15:56:19.455Z,5.35
2023-05-19T15:58:46.377Z,5.18
2023-05-19T16:01:14.428Z,5.72
2023-05-19T16:03:42.072Z,5.28
2023-05-19T16:06:09.667Z,5.43
2023-05-19T16:08:37.974Z,4.90
2023-05-19T16:11:05.686Z,5.60
2023-05-19T16:13:34.036Z,5.22
2023-05-19T16:16:01.727Z,5.18
2023-05-19T16:18:29.722Z,5.10
2023-05-19T16:20:57.315Z,5.10
2023-05-19T16:23:24.911Z,5.15
2023-05-19T16:25:53.348Z,5.07
2023-05-19T16:28:22.571Z,4.25
2023-05-19T16:30:52.241Z,4.57
2023-05-19T16:33:19.238Z,5.10
2023-05-19T16:35:47.017Z,6.00
2023-05-19T16:38:14.119Z,6.13
2023-05-19T16:40:41.543Z,5.63
2023-05-19T16:43:08.569Z,5.53
2023-05-19T16:45:36.487Z,5.78
2023-05-19T16:48:03.801Z,6.43
2023-05-19T16:50:31.186Z,5.43
2023-05-19T16:52:59.199Z,5.72
2023-05-19T16:55:26.884Z,6.00
2023-05-19T16:57:53.848Z,5.50
2023-05-19T17:00:21.324Z,5.70
2023-05-19T17:02:48.333Z,6.05
2023-05-19T17:05:15.982Z,6.38
2023-05-19T17:07:42.951Z,6.07
2023-05-19T17:10:10.567Z,5.65
2023-05-19T17:12:37.703Z,6.05
2023-05-19T17:15:05.604Z,6.20
2023-05-19T17:17:32.603Z,6.85
2023-05-19T17:20:00.046Z,5.63
2023-05-19T17:22:28.760Z,7.03
2023-05-19T17:24:57.571Z,6.45
2023-05-19T17:27:24.676Z,5.60
2023-05-19T17:29:51.939Z,6.47
2023-05-19T17:32:22.136Z,6.60
2023-05-19T17:34:49.625Z,6.53
2023-05-19T17:37:19.086Z,5.72
2023-05-19T17:39:46.334Z,6.55
2023-05-19T17:42:13.256Z,6.97
2023-05-19T17:44:41.431Z,6.88
2023-05-19T17:47:08.436Z,6.50
2023-05-19T17:49:36.088Z,5.68
2023-05-19T17:52:03.485Z,5.68
2023-05-19T17:54:31.017Z,5.97
2023-05-19T17:57:02.094Z,5.10
2023-05-19T17:59:30.325Z,4.88
2023-05-19T18:01:57.685Z,5.20
2023-05-19T18:04:25.566Z,6.32
2023-05-19T18:06:52.907Z,6.00
2023-05-19T18:09:20.629Z,5.50
2023-05-19T18:11:47.791Z,6.57
2023-05-19T18:14:15.002Z,7.35
2023-05-19T18:16:42.158Z,6.63
2023-05-19T18:19:09.593Z,6.15
2023-05-19T18:21:36.608Z,6.15
2023-05-19T18:24:04.490Z,5.95
2023-05-19T18:26:33.095Z,6.32
2023-05-19T18:29:02.823Z,6.72
2023-05-19T18:31:29.890Z,7.32
2023-05-19T18:33:57.081Z,7.20
2023-05-19T18:36:24.060Z,6.25
2023-05-19T18:38:51.351Z,6.40
2023-05-19T18:41:18.598Z,6.80
2023-05-19T18:43:45.814Z,6.35
2023-05-19T18:46:13.620Z,7.00
2023-05-19T18:48:41.167Z,5.45
2023-05-19T18:51:09.003Z,6.43
2023-05-19T18:53:37.061Z,7.53
2023-05-19T18:56:04.289Z,7.30
2023-05-19T18:58:31.973Z,7.18
2023-05-19T19:00:59.202Z,7.10
2023-05-19T19:03:26.649Z,7.63
2023-05-19T19:05:55.268Z,7.53
2023-05-19T19:08:23.183Z,6.95
2023-05-19T19:10:51.562Z,6.22
2023-05-19T19:13:19.124Z,7.07
2023-05-19T19:15:46.196Z,7.05
2023-05-19T19:18:13.607Z,6.75
2023-05-19T19:20:40.595Z,6.82
2023-05-19T19:23:07.915Z,6.90
2023-05-19T19:25:35.075Z,6.20
2023-05-19T19:28:02.445Z,5.88
2023-05-19T19:30:29.558Z,6.18
2023-05-19T19:32:57.088Z,6.43
2023-05-19T19:35:24.120Z,6.43
2023-05-19T19:37:51.868Z,5.85
2023-05-19T19:40:19.000Z,5.28
2023-05-19T19:42:46.764Z,5.90
2023-05-19T19:45:15.714Z,5.68
2023-05-19T19:47:43.466Z,5.50
2023-05-19T19:50:11.567Z,6.07
2023-05-19T19:52:39.463Z,5.38
2023-05-19T19:55:06.992Z,5.93
2023-05-19T19:57:34.416Z,5.07
2023-05-19T20:00:07.930Z,5.82
2023-05-19T20:02:41.023Z,5.53
2023-05-19T20:05:14.023Z,5.95
2023-05-19T20:07:41.425Z,5.50
2023-05-19T20:10:08.832Z,6.18
2023-05-19T20:12:36.136Z,6.20
2023-05-19T20:15:03.203Z,6.57
2023-05-19T20:17:30.815Z,6.68
2023-05-19T20:19:59.054Z,6.32
2023-05-19T20:22:26.369Z,7.13
2023-05-19T20:24:53.401Z,5.82
2023-05-19T20:27:20.824Z,5.70
2023-05-19T20:29:47.756Z,6.43
2023-05-19T20:32:15.067Z,6.53
2023-05-19T20:34:42.302Z,6.38
2023-05-19T20:37:09.818Z,6.68
2023-05-19T20:39:36.795Z,6.15
2023-05-19T20:42:04.302Z,6.35
2023-05-19T20:44:31.284Z,6.65
2023-05-19T20:46:58.743Z,6.45
2023-05-19T20:49:25.792Z,6.40
2023-05-19T20:51:53.079Z,7.45
2023-05-19T20:54:20.444Z,6.85
2023-05-19T20:56:48.173Z,6.22
2023-05-19T20:59:15.139Z,5.68
2023-05-19T21:01:42.486Z,5.93
2023-05-19T21:04:09.655Z,5.97
2023-05-19T21:06:37.022Z,6.20
2023-05-19T21:09:06.707Z,6.20
2023-05-19T21:11:34.419Z,6.15
2023-05-19T21:14:04.198Z,4.93
2023-05-19T21:16:32.211Z,4.68
2023-05-19T21:18:59.544Z,5.20
2023-05-19T21:21:26.870Z,4.32
2023-05-19T21:23:53.886Z,4.90
2023-05-19T21:26:22.127Z,4.43
2023-05-19T21:28:49.021Z,4.38
2023-05-19T21:31:16.662Z,4.97
2023-05-19T21:33:43.669Z,4.38
2023-05-19T21:36:11.048Z,4.43
2023-05-19T21:38:38.100Z,4.18
2023-05-19T21:41:05.464Z,4.50
2023-05-19T21:43:32.380Z,4.32
2023-05-19T21:45:59.716Z,4.10
2023-05-19T21:48:26.707Z,4.22
2023-05-19T21:50:54.683Z,4.38
2023-05-19T21:53:21.787Z,4.68
2023-05-19T21:55:49.139Z,5.38
2023-05-19T21:58:16.344Z,5.07
2023-05-19T22:00:49.094Z,5.35
2023-05-19T22:03:16.345Z,5.45
2023-05-19T22:05:49.093Z,5.53
2023-05-19T22:08:17.224Z,5.20
2023-05-19T22:10:44.950Z,3.80
2023-05-19T22:13:12.709Z,3.95
2023-05-19T22:15:40.365Z,4.57
2023-05-19T22:18:07.457Z,4.22
2023-05-19T22:20:35.595Z,4.55
2023-05-19T22:23:03.724Z,4.60
2023-05-19T22:25:31.025Z,4.35
2023-05-19T22:27:58.114Z,4.75
2023-05-19T22:30:25.857Z,4.53
2023-05-19T22:32:52.959Z,5.28
2023-05-19T22:35:20.316Z,4.47
2023-05-19T22:37:47.194Z,3.90
2023-05-19T22:40:14.762Z,4.40
2023-05-19T22:42:41.737Z,4.60
2023-05-19T22:45:09.666Z,4.30
2023-05-19T22:47:36.749Z,3.80
2023-05-19T22:50:04.205Z,3.80
2023-05-19T22:52:31.129Z,4.10
2023-05-19T22:54:58.506Z,4.03
2023-05-19T22:57:25.550Z,3.65
2023-05-19T22:59:52.987Z,3.92
2023-05-19T23:02:19.890Z,3.50
2023-05-19T23:04:47.138Z,3.15
2023-05-19T23:07:14.183Z,3.10
2023-05-19T23:09:41.476Z,2.80
2023-05-19T23:12:08.458Z,3.03
2023-05-19T23:14:36.069Z,2.83
2023-05-19T23:17:03.164Z,3.25
2023-05-19T23:19:31.982Z,3.35
2023-05-19T23:21:59.022Z,2.80
2023-05-19T23:24:26.608Z,2.90
2023-05-19T23:26:56.399Z,2.40
2023-05-19T23:29:23.707Z,2.72
2023-05-19T23:31:50.941Z,3.42
2023-05-19T23:34:18.392Z,3.15
2023-05-19T23:36:45.422Z,2.30
2023-05-19T23:39:12.654Z,2.83
2023-05-19T23:41:39.622Z,2.95
2023-05-19T23:44:08.300Z,2.78
2023-05-19T23:46:35.352Z,4.03
2023-05-19T23:49:02.747Z,3.35
2023-05-19T23:51:29.793Z,2.83
2023-05-19T23:53:57.176Z,2.83
2023-05-19T23:56:24.143Z,3.67
2023-05-19T23:58:51.654Z,4.55
